createdAt,value
2022-12-18T00:05:14.485Z,1026.85
2022-12-18T00:19:14.462Z,1027.03
2022-12-18T00:33:14.514Z,1027.13
2022-12-18T00:47:14.466Z,1027.23
2022-12-18T01:01:14.587Z,1027.4299999999998
2022-12-18T01:15:14.491Z,1027.55
2022-12-18T01:29:14.478Z,1027.8
2022-12-18T01:43:14.597Z,1027.85
2022-12-18T01:57:14.575Z,1027.97
2022-12-18T02:11:14.574Z,1028.1
2022-12-18T02:25:14.580Z,1028.17
2022-12-18T02:39:14.583Z,1028.3200000000002
2022-12-18T02:53:14.576Z,1028.4299999999998
2022-12-18T03:07:14.604Z,1028.58
2022-12-18T03:21:14.622Z,1028.58
2022-12-18T03:35:14.616Z,1028.58
2022-12-18T03:49:14.827Z,1028.6799999999998
2022-12-18T04:03:15.043Z,1028.8
2022-12-18T04:17:15.060Z,1029.03
2022-12-18T04:31:15.222Z,1029.28
2022-12-18T04:45:15.138Z,1029.3200000000002
2022-12-18T04:59:15.149Z,1029.67
2022-12-18T05:13:15.172Z,1029.8
2022-12-18T05:27:15.173Z,1029.9
2022-12-18T05:41:15.154Z,1029.87
2022-12-18T05:55:15.269Z,1030.1399999999999
2022-12-18T06:09:15.444Z,1030.1599999999999
2022-12-18T06:23:15.452Z,1030.47
2022-12-18T06:37:15.471Z,1030.58
2022-12-18T06:52:15.546Z,1030.69
2022-12-18T07:07:15.549Z,1030.78
2022-12-18T07:22:15.577Z,1030.95
2022-12-18T07:37:15.577Z,1031.1
2022-12-18T07:52:15.578Z,1031.22
2022-12-18T08:07:15.600Z,1031.56
2022-12-18T08:22:16.696Z,1031.62
2022-12-18T08:37:15.653Z,1031.83
2022-12-18T08:53:15.649Z,1031.97
2022-12-18T09:08:15.788Z,1032.1799999999998
2022-12-18T09:23:15.740Z,1032.3400000000001
2022-12-18T09:38:15.750Z,1032.4299999999998
2022-12-18T09:53:15.762Z,1032.3899999999999
2022-12-18T10:08:15.765Z,1032.28
2022-12-18T10:23:15.755Z,1032.1399999999999
2022-12-18T10:38:15.760Z,1032
2022-12-18T10:53:15.792Z,1031.98
2022-12-18T11:08:15.797Z,1032.02
2022-12-18T11:23:15.812Z,1031.94
2022-12-18T11:38:15.952Z,1032.01
2022-12-18T11:53:15.923Z,1031.8200000000002
2022-12-18T12:08:15.943Z,1031.69
2022-12-18T12:23:15.925Z,1031.74
2022-12-18T12:38:15.948Z,1031.73
2022-12-18T12:53:15.970Z,1031.69
2022-12-18T13:08:15.971Z,1031.73
2022-12-18T13:23:15.973Z,1031.6399999999999
2022-12-18T13:38:15.962Z,1031.73
2022-12-18T13:53:15.968Z,1031.52
2022-12-18T14:08:16.027Z,1031.58
2022-12-18T14:23:16.147Z,1031.7
2022-12-18T14:38:16.112Z,1031.75
2022-12-18T14:54:16.133Z,1031.8899999999999
2022-12-18T15:10:16.117Z,1032.0900000000001
2022-12-18T15:25:16.116Z,1032.22
2022-12-18T15:42:16.137Z,1032.3899999999999
2022-12-18T15:57:16.157Z,1032.42
2022-12-18T16:13:16.148Z,1032.35
2022-12-18T16:27:16.153Z,1032.5900000000001
2022-12-18T16:41:16.195Z,1032.46
2022-12-18T16:55:16.230Z,1032.6399999999999
2022-12-18T17:09:16.199Z,1032.65
2022-12-18T17:23:16.231Z,1032.63
2022-12-18T17:37:16.285Z,1032.78
2022-12-18T17:51:16.257Z,1032.85
2022-12-18T18:19:34.523Z,1033.01
2022-12-18T18:34:34.614Z,1033.05
2022-12-18T18:48:34.580Z,1033.17
2022-12-18T19:02:34.870Z,1033.24
2022-12-18T19:16:35.062Z,1033.22
2022-12-18T19:30:35.083Z,1033.0900000000001
2022-12-18T19:44:35.145Z,1033.15
2022-12-18T19:58:35.236Z,1033.35
2022-12-18T20:12:35.190Z,1033.4299999999998
2022-12-18T20:26:35.198Z,1033.47
2022-12-18T20:40:35.229Z,1033.5
2022-12-18T20:54:35.241Z,1033.71
2022-12-18T21:08:35.251Z,1033.8
2022-12-18T21:22:35.313Z,1033.94
2022-12-18T21:37:35.751Z,1033.98
2022-12-18T21:51:35.623Z,1034.12
2022-12-18T22:05:35.718Z,1034.13
2022-12-18T22:19:41.166Z,1034.26
2022-12-18T22:33:35.773Z,1034.1599999999999
2022-12-18T22:47:35.813Z,1033.99
2022-12-18T23:01:35.885Z,1034.1
2022-12-18T23:15:35.844Z,1034.1100000000001
2022-12-18T23:29:35.834Z,1034.04
2022-12-18T23:43:35.890Z,1033.97
2022-12-18T23:57:35.959Z,1033.97
